Saturday, October 20, 2018, 10:39 AM GMT
Back to Local

CYGK, Kingston, Ont.

Location: , , Canada Lat: 44.217
Local Time: 10:39 AM GMT (10:39 GMT) Lon: -76.6
Time Zone: GMT Elev: 305 ft

Show me the last for .
Show Decoded

2018-10-20 10:17 METAR CYGK 201017Z 25023G33KT 12SM BKN013 OVC085 11/09 A2950 RMK SC5AC3 SLP993
                 DENSITY ALT 400FT =
2018-10-20 10:00 METAR CYGK 201000Z 24021G31KT 10SM -RA BKN012 OVC080 10/09 A2950 RMK SC5AC3
                 SLP991 DENSITY ALT 400FT =
2018-10-20 03:00 METAR CYGK 200300Z 24019G27KT 15SM -SHRA SCT040 OVC070 12/05 A2966 RMK CU3AC5
                 LAST STFD OBS/NEXT 201000 UTC PRESFR SLP047 DENSITY ALT 400FT =
2018-10-20 02:00 METAR CYGK 200200Z 22017G23KT 15SM OVC090 13/05 A2969 RMK AC8 SLP056 DENSITY ALT
                 400FT =
2018-10-20 01:00 METAR CYGK 200100Z 23014G20KT 15SM OVC090 13/04 A2972 RMK AC8 PRESFR SLP067
                 DENSITY ALT 400FT =
2018-10-20 00:00 METAR CYGK 200000Z 23016G22KT 15SM BKN140 OVC180 13/04 A2976 RMK AC6CI2 SLP080
                 DENSITY ALT 400FT =
2018-10-19 23:00 METAR CYGK 192300Z 22014G21KT 15SM BKN140 OVC190 13/04 A2979 RMK AC5CI3 PRESFR
                 SLP092 =
2018-10-19 22:00 METAR CYGK 192200Z 22015G21KT 15SM BKN140 OVC200 13/07 A2982 RMK AC5CI3 SLP101 =
2018-10-19 21:00 METAR CYGK 192100Z 23013G22KT 15SM BKN170 OVC240 13/08 A2985 RMK AC6CI2 SLP110 =
2018-10-19 20:00 METAR CYGK 192000Z 23015G23KT 15SM SCT180 OVC230 14/08 A2987 RMK AC3CI5 SLP117 =
2018-10-19 19:00 METAR CYGK 191900Z 21015KT 15SM FEW030 BKN220 14/08 A2990 RMK SC2CI5 SLP130 =
2018-10-19 18:00 METAR CYGK 191800Z 24019G27KT 15SM FEW030 BKN220 BKN250 14/08 A2993 RMK
                 SC2CI3CI2 SLP139 =
2018-10-19 17:00 METAR CYGK 191700Z 23021G26KT 15SM FEW030 BKN210 14/07 A2995 RMK SC1CI6 PRESFR
                 SLP147 =
2018-10-19 16:00 METAR CYGK 191600Z 23016G22KT 15SM FEW030 BKN210 13/07 A2999 RMK SC1CI6 SC TR
                 SLP159 =
2018-10-19 15:00 METAR CYGK 191500Z 23017G26KT 15SM FEW030 BKN250 12/06 A3001 RMK SC1CI6 SC TR
                 SLP167 =
2018-10-19 14:00 METAR CYGK 191400Z 25017G25KT 15SM FEW020 BKN240 12/04 A3004 RMK SC1CI5 SC TR
                 SLP178 =
2018-10-19 13:00 METAR CYGK 191300Z 25016G26KT 15SM FEW020 FEW250 10/04 A3006 RMK SC1CI2 SC TR
                 SLP184 =
2018-10-19 12:00 METAR CYGK 191200Z 25014G21KT 15SM FEW020 FEW240 09/04 A3007 RMK SC1CI2 SC TR
                 SLP187 =
2018-10-19 11:00 METAR CYGK 191100Z 25016G24KT 15SM FEW020 FEW120 FEW240 08/02 A3008 RMK
                 SC1AC1CI1 SC TR AC TR SLP191 =

Support USWX by starting your Amazon purchase here.